»·PEaware :: 4XCDT KSMX-KBFL

4XCDT :: KSMX-KBFL

FLIGHT INFORMATION

Flight Status: Arrived
Operator: Unknown
More flights by this operator :: More flights under this callsign
Pilot: Hanan M. (7895)
Aircraft: CESSNA 172 SKYHAWK
(C172)
More flights by this aircraft type
Origin: KSMX Santa Maria Pub/Capt Hancock
United States
Destination: KBFL Meadows
United States
More flights between these airports :: More routes between these airports
Route: KSMX FLW KBFL
File this flight plan on PilotEdge
Remarks:
Altitude:
(Current/Filed)
7,500ft
Speed:
(Current/Filed)
115kts
Departed: 15-Jun-17 11:36 AM
Arrived: 15-Jun-17 12:26 PM
Distance/Time
Traveled:
76nm/0:50
Distance/Time
To Go:
Arrived

Flight Plot

Page will automatically refresh every two minutes.


Map Options




Map Legend


Flown Route
Filed Route
Departure Airport
Arrival Airport
Navaid (VOR, NDB)
Fix

Horizontal Profiles

Position Reports

Time Latitude Longitude Heading Altitude Ground
Speed
15-Jun-17 11:24 34.901615 -120.452233 228 265ft 0kts
15-Jun-17 11:25 34.901615 -120.452233 228 265ft 0kts
15-Jun-17 11:26 34.901615 -120.452233 228 265ft 0kts
15-Jun-17 11:27 34.901614 -120.452234 228 265ft 0kts
15-Jun-17 11:28 34.901614 -120.452233 228 265ft 0kts
15-Jun-17 11:29 34.901614 -120.452233 228 265ft 0kts
15-Jun-17 11:30 34.901614 -120.452233 228 265ft 0kts
15-Jun-17 11:31 34.901614 -120.452233 228 265ft 0kts
15-Jun-17 11:32 34.901614 -120.452233 228 265ft 0kts
15-Jun-17 11:33 34.901553 -120.452334 240 265ft 6kts
15-Jun-17 11:34 34.898982 -120.450687 138 265ft 23kts
15-Jun-17 11:35 34.893270 -120.444955 183 265ft 7kts
15-Jun-17 11:36 34.893217 -120.444959 183 265ft 0kts
15-Jun-17 11:37 34.893217 -120.444959 183 265ft 0kts
15-Jun-17 11:38 34.896530 -120.450118 315 317ft 72kts
15-Jun-17 11:39 34.913765 -120.468635 335 1072ft 89kts
15-Jun-17 11:40 34.932360 -120.451392 57 1971ft 88kts
15-Jun-17 11:41 34.940185 -120.423357 67 2826ft 87kts
15-Jun-17 11:42 34.947864 -120.395519 67 3631ft 86kts
15-Jun-17 11:43 34.955505 -120.367932 67 4396ft 86kts
15-Jun-17 11:44 34.963140 -120.340463 67 5125ft 85kts
15-Jun-17 11:45 34.970708 -120.313307 67 5816ft 84kts
15-Jun-17 11:46 34.978249 -120.286308 67 6472ft 84kts
15-Jun-17 11:47 34.985786 -120.259375 67 7098ft 83kts
15-Jun-17 11:48 34.993521 -120.231937 67 7578ft 97kts
15-Jun-17 11:49 35.004160 -120.196208 67 7572ft 116kts
15-Jun-17 11:50 35.014597 -120.161518 67 7555ft 114kts
15-Jun-17 11:51 35.026346 -120.123683 66 7554ft 113kts
15-Jun-17 11:52 35.037460 -120.088989 66 7553ft 113kts
15-Jun-17 11:53 35.048238 -120.055604 66 7552ft 112kts
15-Jun-17 11:54 35.059115 -120.022130 66 7551ft 112kts
15-Jun-17 11:55 35.070104 -119.988468 66 7551ft 112kts
15-Jun-17 11:56 35.081428 -119.953759 66 7552ft 113kts
15-Jun-17 11:57 35.093141 -119.917849 66 7552ft 114kts
15-Jun-17 11:58 35.103722 -119.885427 66 7552ft 114kts
15-Jun-17 11:59 35.115444 -119.849587 66 7552ft 114kts
15-Jun-17 12:00 35.127288 -119.813489 66 7551ft 114kts
15-Jun-17 12:01 35.138344 -119.779957 66 7551ft 114kts
15-Jun-17 12:02 35.150254 -119.745282 64 7551ft 114kts
15-Jun-17 12:03 35.163178 -119.709837 64 7555ft 114kts
15-Jun-17 12:04 35.175975 -119.674733 64 7544ft 115kts
15-Jun-17 12:05 35.188966 -119.639135 64 7548ft 115kts
15-Jun-17 12:06 35.201981 -119.603561 64 7552ft 116kts
15-Jun-17 12:07 35.215261 -119.567396 64 7557ft 116kts
15-Jun-17 12:08 35.229263 -119.531611 62 7561ft 117kts
15-Jun-17 12:09 35.243731 -119.495975 62 7563ft 117kts
15-Jun-17 12:10 35.258205 -119.460357 62 7563ft 117kts
15-Jun-17 12:11 35.272787 -119.424461 62 7563ft 117kts
15-Jun-17 12:12 35.287262 -119.388809 62 7563ft 117kts
15-Jun-17 12:13 35.301833 -119.352910 62 7563ft 117kts
15-Jun-17 12:14 35.315634 -119.318920 62 7562ft 117kts
15-Jun-17 12:15 35.329888 -119.283493 65 7445ft 116kts
15-Jun-17 12:16 35.341603 -119.254043 62 7441ft 96kts
15-Jun-17 12:17 35.352968 -119.225913 63 6831ft 91kts
15-Jun-17 12:18 35.364309 -119.198290 61 6149ft 90kts
15-Jun-17 12:19 35.376819 -119.172660 51 5473ft 89kts
15-Jun-17 12:21 35.390661 -119.146948 56 4780ft 89kts
15-Jun-17 12:22 35.404034 -119.121880 78 4101ft 90kts
15-Jun-17 12:23 35.395378 -119.095112 125 3412ft 86kts
15-Jun-17 12:24 35.385118 -119.068195 96 2640ft 90kts
15-Jun-17 12:25 35.386167 -119.039484 60 1708ft 78kts
15-Jun-17 12:26 35.400165 -119.023304 347 739ft 70kts
15-Jun-17 12:27 35.416772 -119.035634 315 647ft 71kts
15-Jun-17 12:28 35.430420 -119.052074 316 513ft 70kts
15-Jun-17 12:29 35.436259 -119.057776 60 497ft 0kts
15-Jun-17 12:30 35.436259 -119.057776 60 497ft 0kts
15-Jun-17 12:31 35.436259 -119.057776 60 497ft 0kts
15-Jun-17 12:32 35.436259 -119.057776 60 497ft 0kts
15-Jun-17 12:33 35.436160 -119.054962 46 497ft 6kts
15-Jun-17 12:34 35.436564 -119.054411 41 497ft 0kts
15-Jun-17 12:35 35.436564 -119.054411 41 497ft 0kts
15-Jun-17 12:36 35.436564 -119.054411 41 497ft 0kts
15-Jun-17 12:37 35.436564 -119.054411 41 497ft 0kts
15-Jun-17 12:38 35.436564 -119.054411 41 497ft 0kts
15-Jun-17 12:39 35.436564 -119.054411 41 497ft 0kts
15-Jun-17 12:40 35.436564 -119.054411 41 497ft 0kts
15-Jun-17 12:41 35.436564 -119.054411 41 497ft 0kts

Navigation Log

Ident Type
1. KSMX Airport
2. FLW Navaid
3. KBFL Airport